createdAt,value
2019-05-25T16:12:07.879Z,2.80
2019-05-25T16:14:35.370Z,2.73
2019-05-25T16:17:02.716Z,3.13
2019-05-25T16:19:33.513Z,2.53
2019-05-25T16:22:01.070Z,2.60
2019-05-25T16:24:28.422Z,2.80
2019-05-25T16:26:56.162Z,2.83
2019-05-25T16:29:24.117Z,2.40
2019-05-25T16:31:52.457Z,2.30
2019-05-25T16:34:19.741Z,2.23
2019-05-25T16:36:47.036Z,2.50
2019-05-25T16:39:14.407Z,2.13
2019-05-25T16:41:41.837Z,2.10
2019-05-25T16:44:09.180Z,2.23
2019-05-25T16:46:36.461Z,2.13
2019-05-25T16:49:03.871Z,2.20
2019-05-25T16:51:31.163Z,2.30
2019-05-25T16:53:58.469Z,2.33
2019-05-25T16:56:25.758Z,1.80
2019-05-25T16:58:55.055Z,2.00
2019-05-25T17:01:22.817Z,2.20
2019-05-25T17:03:51.275Z,1.97
2019-05-25T17:06:18.633Z,2.23
2019-05-25T17:08:45.919Z,2.10
2019-05-25T17:11:14.225Z,2.20
2019-05-25T17:13:41.506Z,2.47
2019-05-25T17:16:09.060Z,2.00
2019-05-25T17:18:36.686Z,2.07
2019-05-25T17:21:03.997Z,2.10
2019-05-25T17:23:31.429Z,2.27
2019-05-25T17:25:58.856Z,2.00
2019-05-25T17:28:26.152Z,2.37
2019-05-25T17:30:53.507Z,2.37
2019-05-25T17:33:20.784Z,2.30
2019-05-25T17:35:48.273Z,2.53
2019-05-25T17:38:18.400Z,2.20
2019-05-25T17:40:46.079Z,2.00
2019-05-25T17:43:13.487Z,2.30
2019-05-25T17:45:40.777Z,2.23
2019-05-25T17:48:08.065Z,2.23
2019-05-25T17:50:35.433Z,2.00
2019-05-25T17:53:03.074Z,2.23
2019-05-25T17:55:30.358Z,2.13
2019-05-25T17:57:58.770Z,2.43
2019-05-25T18:00:49.390Z,2.20
2019-05-25T18:03:16.894Z,2.20
2019-05-25T18:05:46.336Z,2.27
2019-05-25T18:08:13.636Z,2.20
2019-05-25T18:10:52.911Z,2.10
2019-05-25T18:13:10.132Z,2.30
2019-05-25T18:15:37.442Z,2.00
2019-05-25T18:18:05.058Z,2.10
2019-05-25T18:20:32.455Z,2.37
2019-05-25T18:22:59.843Z,2.10
2019-05-25T18:25:27.128Z,2.07
2019-05-25T18:27:54.514Z,2.17
2019-05-25T18:30:23.693Z,2.40
2019-05-25T18:32:51.321Z,2.63
2019-05-25T18:35:20.238Z,2.00
2019-05-25T18:37:49.352Z,2.60
2019-05-25T18:40:19.056Z,3.03
2019-05-25T18:42:48.424Z,2.70
2019-05-25T18:45:17.568Z,2.80
2019-05-25T18:47:46.798Z,2.77
2019-05-25T18:50:16.309Z,3.37
2019-05-25T18:52:46.579Z,3.20
2019-05-25T18:55:15.873Z,3.37
2019-05-25T18:57:45.767Z,3.60
2019-05-25T19:00:16.607Z,3.20
2019-05-25T19:02:45.181Z,2.87
2019-05-25T19:05:13.859Z,3.00
2019-05-25T19:07:46.823Z,2.90
2019-05-25T19:10:17.699Z,2.90
2019-05-25T19:12:45.371Z,3.03
2019-05-25T19:15:15.796Z,3.10
2019-05-25T19:17:45.008Z,3.07
2019-05-25T19:20:20.670Z,3.33
2019-05-25T19:22:46.787Z,3.80
2019-05-25T19:25:19.181Z,3.33
2019-05-25T19:27:47.352Z,3.17
2019-05-25T19:30:18.281Z,3.20
2019-05-25T19:32:47.367Z,3.80
2019-05-25T19:35:14.742Z,3.70
2019-05-25T19:37:43.499Z,3.90
2019-05-25T19:40:11.877Z,4.40
2019-05-25T19:42:39.681Z,3.67
2019-05-25T19:45:18.246Z,4.50
2019-05-25T19:47:47.100Z,4.90
2019-05-25T19:50:19.399Z,4.60
2019-05-25T19:52:48.543Z,4.63
2019-05-25T19:55:18.316Z,4.47
2019-05-25T19:57:51.501Z,4.60
2019-05-25T20:00:22.242Z,4.73
2019-05-25T20:02:51.516Z,4.73
2019-05-25T20:05:20.737Z,4.77
2019-05-25T20:07:51.057Z,5.23
2019-05-25T20:10:20.552Z,5.00
2019-05-25T20:12:50.041Z,5.00
2019-05-25T20:15:23.779Z,5.10
2019-05-25T20:17:52.761Z,5.50
2019-05-25T20:20:20.538Z,6.07
2019-05-25T20:22:47.776Z,5.60
2019-05-25T20:25:15.237Z,5.30
2019-05-25T20:27:42.625Z,5.73
2019-05-25T20:30:10.119Z,5.80
2019-05-25T20:32:37.393Z,6.00
2019-05-25T20:35:04.858Z,5.73
2019-05-25T20:37:33.004Z,5.83
2019-05-25T20:40:00.371Z,5.53
2019-05-25T20:42:27.624Z,5.57
2019-05-25T20:44:54.860Z,5.30
2019-05-25T20:47:22.164Z,5.87
2019-05-25T20:49:49.386Z,5.97
2019-05-25T20:52:16.674Z,6.47
2019-05-25T20:54:44.077Z,6.47
2019-05-25T20:57:11.338Z,6.83
2019-05-25T20:59:38.719Z,6.67
2019-05-25T21:02:06.033Z,6.73
2019-05-25T21:04:34.395Z,6.60
2019-05-25T21:07:01.764Z,6.67
2019-05-25T21:09:29.130Z,7.17
2019-05-25T21:11:56.535Z,7.13
2019-05-25T21:14:23.888Z,6.37
2019-05-25T21:16:51.180Z,6.63
2019-05-25T21:19:18.520Z,6.87
2019-05-25T21:21:45.860Z,6.63
2019-05-25T21:24:13.230Z,6.30
2019-05-25T21:26:40.541Z,8.17
2019-05-25T21:29:07.807Z,8.20
2019-05-25T21:31:35.091Z,9.40
2019-05-25T21:34:02.504Z,8.47
2019-05-25T21:36:30.092Z,8.90
2019-05-25T21:38:57.506Z,8.60
2019-05-25T21:41:24.882Z,8.10
2019-05-25T21:43:52.106Z,8.00
2019-05-25T21:46:20.496Z,8.87
2019-05-25T21:48:47.747Z,9.00
2019-05-25T21:51:15.032Z,8.57
2019-05-25T21:53:42.274Z,8.40
2019-05-25T21:56:09.597Z,8.37
2019-05-25T21:58:36.869Z,7.80
2019-05-25T22:01:04.940Z,7.57
2019-05-25T22:03:33.293Z,8.03
2019-05-25T22:06:00.729Z,6.90
2019-05-25T22:08:27.970Z,7.40
2019-05-25T22:10:55.341Z,9.87
2019-05-25T22:13:28.441Z,8.83
2019-05-25T22:15:51.925Z,8.97
2019-05-25T22:18:19.226Z,7.70
2019-05-25T22:20:46.675Z,7.60
2019-05-25T22:23:13.966Z,8.20
2019-05-25T22:25:41.710Z,7.77
2019-05-25T22:28:08.987Z,7.00
2019-05-25T22:30:36.212Z,8.67
2019-05-25T22:33:03.610Z,9.83
2019-05-25T22:35:30.890Z,10.23
2019-05-25T22:37:58.155Z,11.03
2019-05-25T22:40:25.624Z,13.17
2019-05-25T22:42:52.890Z,14.57
2019-05-25T22:45:20.149Z,13.87
2019-05-25T22:47:47.458Z,11.10
2019-05-25T22:50:14.730Z,11.47
2019-05-25T22:52:41.994Z,9.23
2019-05-25T22:55:10.146Z,9.23
2019-05-25T22:57:37.438Z,11.10
2019-05-25T23:00:06.369Z,10.63
2019-05-25T23:02:33.703Z,9.47
2019-05-25T23:05:01.005Z,12.07
2019-05-25T23:07:28.341Z,10.33
2019-05-25T23:09:55.569Z,10.20
2019-05-25T23:12:22.938Z,10.77
2019-05-25T23:14:50.187Z,10.90
2019-05-25T23:17:17.407Z,10.47
2019-05-25T23:19:44.647Z,10.87
2019-05-25T23:22:11.931Z,10.50
2019-05-25T23:24:39.215Z,9.50
2019-05-25T23:27:06.461Z,10.43
2019-05-25T23:29:33.707Z,10.47
2019-05-25T23:32:01.113Z,9.03
2019-05-25T23:34:28.348Z,9.20
2019-05-25T23:36:55.723Z,8.87
2019-05-25T23:39:22.998Z,8.17
2019-05-25T23:41:50.272Z,7.50
2019-05-25T23:44:18.114Z,8.30
2019-05-25T23:46:45.379Z,7.93
2019-05-25T23:49:12.654Z,7.90
2019-05-25T23:51:39.970Z,7.73
2019-05-25T23:54:07.286Z,7.33
2019-05-25T23:56:34.675Z,8.83
2019-05-25T23:59:02.024Z,8.00
